Time;durP1;ratioP1;P1;durP2;ratioP2;P2;SDS_P1;SDS_P2;PMS_P1;PMS_P2;Temp;Humidity;BMP_temperature;BMP_pressure;BME280_temperature;BME280_humidity;BME280_pressure;Samples;Min_cycle;Max_cycle;Signal;HPM_P1;HPM_P2
2023/08/04 00:00:13;;;;;;;12.68;9.32;;;;;;;;;;6250275;22;20437;-82
2023/08/04 00:02:38;;;;;;;14.80;9.52;;;;;;;;;;6278313;22;20427;-81
2023/08/04 00:05:05;;;;;;;13.07;9.93;;;;;;;;;;6250933;22;20007;-82
2023/08/04 00:07:31;;;;;;;13.13;10.02;;;;;;;;;;6276534;22;20004;-81
2023/08/04 00:09:56;;;;;;;15.82;8.70;;;;;;;;;;6276887;22;19996;-83
2023/08/04 00:12:22;;;;;;;13.27;9.15;;;;;;;;;;6249836;22;19999;-82
2023/08/04 00:14:47;;;;;;;12.57;9.05;;;;;;;;;;6249421;22;20004;-82
2023/08/04 00:17:13;;;;;;;12.07;9.35;;;;;;;;;;6250134;22;20328;-81
2023/08/04 00:19:39;;;;;;;14.45;9.27;;;;;;;;;;6224202;22;20004;-82
2023/08/04 00:22:05;;;;;;;12.68;9.20;;;;;;;;;;6224171;22;20010;-81
2023/08/04 00:24:30;;;;;;;14.88;9.43;;;;;;;;;;6277126;22;20063;-81
2023/08/04 00:26:55;;;;;;;15.10;9.27;;;;;;;;;;6281190;22;19999;-81
2023/08/04 00:29:21;;;;;;;11.45;9.30;;;;;;;;;;6276974;22;20019;-82
2023/08/04 00:31:46;;;;;;;12.25;9.48;;;;;;;;;;6277299;22;20442;-81
2023/08/04 00:34:12;;;;;;;11.65;9.48;;;;;;;;;;6276655;22;20003;-82
2023/08/04 00:36:37;;;;;;;14.13;9.70;;;;;;;;;;6249934;22;20006;-82
2023/08/04 00:39:03;;;;;;;11.43;9.15;;;;;;;;;;6225872;22;20331;-81
2023/08/04 00:41:29;;;;;;;12.60;9.38;;;;;;;;;;6282685;22;20004;-80
2023/08/04 00:43:54;;;;;;;15.02;10.20;;;;;;;;;;6252724;22;20044;-81
2023/08/04 00:46:20;;;;;;;12.50;9.70;;;;;;;;;;6303722;22;20015;-82
2023/08/04 00:48:45;;;;;;;14.60;10.00;;;;;;;;;;6296234;22;20004;-82
2023/08/04 00:51:11;;;;;;;14.27;10.20;;;;;;;;;;6268861;22;20008;-81
2023/08/04 00:53:36;;;;;;;14.82;10.23;;;;;;;;;;6276314;22;20014;-81
2023/08/04 00:56:02;;;;;;;14.38;10.15;;;;;;;;;;6276467;22;20003;-82
2023/08/04 00:58:28;;;;;;;16.67;10.05;;;;;;;;;;6276332;22;20400;-82
2023/08/04 01:00:54;;;;;;;14.95;10.40;;;;;;;;;;6223852;22;20366;-81
2023/08/04 01:03:19;;;;;;;13.20;10.45;;;;;;;;;;6276165;22;20008;-81
2023/08/04 01:05:55;;;;;;;13.90;10.07;;;;;;;;;;6248946;22;20000;-81
2023/08/04 01:08:26;;;;;;;14.02;10.25;;;;;;;;;;6225715;22;20161;-81
2023/08/04 01:11:18;;;;;;;13.60;10.50;;;;;;;;;;6224353;22;20004;-80
2023/08/04 01:13:43;;;;;;;15.02;10.70;;;;;;;;;;6244595;22;20014;-82
2023/08/04 01:16:09;;;;;;;15.82;10.82;;;;;;;;;;6223685;22;20003;-81
2023/08/04 01:18:34;;;;;;;16.40;10.73;;;;;;;;;;6249265;22;20034;-81
2023/08/04 01:21:04;;;;;;;16.95;10.15;;;;;;;;;;6275644;22;19999;-81
2023/08/04 01:23:30;;;;;;;13.57;10.55;;;;;;;;;;6249399;22;20442;-81
2023/08/04 01:25:55;;;;;;;18.52;10.32;;;;;;;;;;6276020;22;20000;-81
2023/08/04 01:28:21;;;;;;;15.55;10.35;;;;;;;;;;6223823;22;20026;-81
2023/08/04 01:30:47;;;;;;;14.18;10.00;;;;;;;;;;6249139;22;20350;-81
2023/08/04 01:33:16;;;;;;;19.52;11.05;;;;;;;;;;6223852;22;20003;-81
2023/08/04 01:35:42;;;;;;;12.98;9.80;;;;;;;;;;6253076;22;20004;-82
2023/08/04 01:38:10;;;;;;;15.98;10.65;;;;;;;;;;6277137;22;20022;-81
2023/08/04 01:40:36;;;;;;;14.38;10.27;;;;;;;;;;6248542;22;20000;-81
2023/08/04 01:43:06;;;;;;;14.98;10.90;;;;;;;;;;6275643;22;20072;-81
2023/08/04 01:45:31;;;;;;;12.20;10.20;;;;;;;;;;6276002;22;20003;-81
2023/08/04 01:47:56;;;;;;;17.63;10.32;;;;;;;;;;6249006;22;20432;-80
2023/08/04 01:50:22;;;;;;;11.75;10.27;;;;;;;;;;6248333;22;20008;-81
2023/08/04 01:52:47;;;;;;;14.70;10.00;;;;;;;;;;6275465;22;20090;-81
2023/08/04 01:55:13;;;;;;;14.48;9.98;;;;;;;;;;6248202;22;20086;-81
2023/08/04 01:57:38;;;;;;;13.63;10.07;;;;;;;;;;6249342;22;20004;-80
2023/08/04 02:00:05;;;;;;;15.98;10.23;;;;;;;;;;6277638;22;20074;-81
2023/08/04 02:02:30;;;;;;;12.77;9.88;;;;;;;;;;6276189;22;20065;-81
2023/08/04 02:04:56;;;;;;;13.38;9.82;;;;;;;;;;6275758;22;20328;-81
2023/08/04 02:07:21;;;;;;;15.05;10.38;;;;;;;;;;6248147;22;20382;-81
2023/08/04 02:09:47;;;;;;;13.45;10.25;;;;;;;;;;6248459;22;19999;-82
2023/08/04 02:12:12;;;;;;;15.48;10.40;;;;;;;;;;6275394;22;20056;-82
2023/08/04 02:14:37;;;;;;;20.25;11.18;;;;;;;;;;6274981;22;20057;-81
2023/08/04 02:17:03;;;;;;;14.00;10.60;;;;;;;;;;6275305;22;20469;-81
2023/08/04 02:19:28;;;;;;;17.88;11.05;;;;;;;;;;6274942;22;20330;-80
2023/08/04 02:21:54;;;;;;;13.85;10.60;;;;;;;;;;6256024;22;20003;-81
2023/08/04 02:24:19;;;;;;;13.65;10.18;;;;;;;;;;6277659;22;20003;-81
2023/08/04 02:26:45;;;;;;;15.55;10.63;;;;;;;;;;6275622;22;20003;-81
2023/08/04 02:29:12;;;;;;;14.45;10.32;;;;;;;;;;6248604;22;20019;-81
2023/08/04 02:31:37;;;;;;;15.20;10.40;;;;;;;;;;6222786;22;20034;-81
2023/08/04 02:34:02;;;;;;;12.60;10.23;;;;;;;;;;6248081;22;20007;-81
2023/08/04 02:36:28;;;;;;;17.48;10.52;;;;;;;;;;6248358;22;20007;-81
2023/08/04 02:38:54;;;;;;;13.65;9.48;;;;;;;;;;6275318;22;19999;-81
2023/08/04 02:41:19;;;;;;;13.85;10.00;;;;;;;;;;6248866;22;20010;-81
2023/08/04 02:43:44;;;;;;;15.25;9.73;;;;;;;;;;6275365;22;20323;-81
2023/08/04 02:46:10;;;;;;;13.82;10.10;;;;;;;;;;6280960;22;20484;-81
2023/08/04 02:48:36;;;;;;;15.45;10.05;;;;;;;;;;6223046;22;20000;-81
2023/08/04 02:51:02;;;;;;;13.45;10.90;;;;;;;;;;6274726;22;20008;-81
2023/08/04 02:53:28;;;;;;;13.32;10.15;;;;;;;;;;6247768;22;20065;-81
2023/08/04 02:55:53;;;;;;;11.95;10.70;;;;;;;;;;6247906;22;20007;-81
2023/08/04 02:58:19;;;;;;;14.02;10.70;;;;;;;;;;6222609;22;20035;-80
2023/08/04 03:00:44;;;;;;;14.35;10.05;;;;;;;;;;6247870;22;20050;-81
2023/08/04 03:03:10;;;;;;;15.85;10.25;;;;;;;;;;6274931;22;20453;-80
2023/08/04 03:05:35;;;;;;;13.00;10.48;;;;;;;;;;6248097;22;20476;-82
2023/08/04 03:08:00;;;;;;;15.63;10.35;;;;;;;;;;6277315;22;20422;-82
2023/08/04 03:10:26;;;;;;;14.93;10.65;;;;;;;;;;6278761;22;20057;-81
2023/08/04 03:12:51;;;;;;;16.17;10.77;;;;;;;;;;6275257;22;20331;-80
2023/08/04 03:15:17;;;;;;;16.00;10.32;;;;;;;;;;6275322;22;20391;-81
2023/08/04 03:17:42;;;;;;;14.68;10.57;;;;;;;;;;6247609;22;20065;-82
2023/08/04 03:20:08;;;;;;;14.65;10.55;;;;;;;;;;6248090;22;20073;-82
2023/08/04 03:22:34;;;;;;;14.00;10.63;;;;;;;;;;6274695;22;20022;-82
2023/08/04 03:24:59;;;;;;;15.48;11.27;;;;;;;;;;6275382;22;20423;-80
2023/08/04 03:27:24;;;;;;;14.48;10.20;;;;;;;;;;6275110;22;20003;-80
2023/08/04 03:29:50;;;;;;;14.75;10.85;;;;;;;;;;6274958;22;20003;-80
2023/08/04 03:32:15;;;;;;;14.90;10.52;;;;;;;;;;6283038;22;20000;-80
2023/08/04 03:34:41;;;;;;;16.70;11.23;;;;;;;;;;6276214;22;20082;-80
2023/08/04 03:37:06;;;;;;;16.35;11.18;;;;;;;;;;6274775;22;20011;-80
2023/08/04 03:39:31;;;;;;;26.45;11.30;;;;;;;;;;6274913;22;20014;-79
2023/08/04 03:41:57;;;;;;;13.68;10.27;;;;;;;;;;6274600;22;20007;-80
2023/08/04 03:44:22;;;;;;;16.00;11.55;;;;;;;;;;6222606;22;20046;-82
2023/08/04 03:46:48;;;;;;;19.52;11.05;;;;;;;;;;6222335;22;20011;-81
2023/08/04 03:49:13;;;;;;;14.70;10.73;;;;;;;;;;6274643;22;19999;-81
2023/08/04 03:51:39;;;;;;;16.25;10.63;;;;;;;;;;6247312;22;20062;-81
2023/08/04 03:54:05;;;;;;;17.13;11.07;;;;;;;;;;6275546;22;20069;-81
2023/08/04 03:56:31;;;;;;;15.85;10.60;;;;;;;;;;6279466;22;20003;-80
2023/08/04 03:58:56;;;;;;;15.48;10.40;;;;;;;;;;6274771;22;20446;-82
2023/08/04 04:01:21;;;;;;;16.63;10.88;;;;;;;;;;6274872;22;20022;-81
2023/08/04 04:03:47;;;;;;;19.10;11.05;;;;;;;;;;6222233;22;20328;-81
2023/08/04 04:06:13;;;;;;;14.98;10.75;;;;;;;;;;6247815;22;20110;-81
2023/08/04 04:08:38;;;;;;;49.20;14.40;;;;;;;;;;6247831;22;20433;-81
2023/08/04 04:11:04;;;;;;;38.70;12.68;;;;;;;;;;6247748;22;20079;-81
2023/08/04 04:13:29;;;;;;;43.22;12.38;;;;;;;;;;6247842;22;20081;-80
2023/08/04 04:15:54;;;;;;;85.75;15.95;;;;;;;;;;6247271;22;20003;-80
2023/08/04 04:18:20;;;;;;;27.00;13.05;;;;;;;;;;6276780;22;20061;-80
2023/08/04 04:20:45;;;;;;;24.33;14.50;;;;;;;;;;6248758;22;20316;-81
2023/08/04 04:23:11;;;;;;;28.27;14.52;;;;;;;;;;6247905;22;20010;-81
2023/08/04 04:25:36;;;;;;;21.73;12.93;;;;;;;;;;6247755;22;20098;-81
2023/08/04 04:28:02;;;;;;;16.23;12.13;;;;;;;;;;6247332;22;20029;-80
2023/08/04 04:30:27;;;;;;;17.85;11.32;;;;;;;;;;6222185;22;20473;-80
2023/08/04 04:32:53;;;;;;;14.52;11.25;;;;;;;;;;6274581;22;20003;-80
2023/08/04 04:35:18;;;;;;;17.95;11.13;;;;;;;;;;6247237;22;20003;-80
2023/08/04 04:37:43;;;;;;;17.95;10.57;;;;;;;;;;6274629;22;20008;-81
2023/08/04 04:40:09;;;;;;;18.85;11.48;;;;;;;;;;6274527;22;20003;-80
2023/08/04 04:42:34;;;;;;;17.73;11.43;;;;;;;;;;6287289;22;20014;-80
2023/08/04 04:45:00;;;;;;;16.92;10.98;;;;;;;;;;6276841;22;20006;-80
2023/08/04 04:47:26;;;;;;;16.95;11.20;;;;;;;;;;6276537;22;19999;-81
2023/08/04 04:49:52;;;;;;;19.70;11.00;;;;;;;;;;6249739;22;20027;-80
2023/08/04 04:52:32;;;;;;;15.60;11.07;;;;;;;;;;6276391;22;20114;-80
2023/08/04 04:54:59;;;;;;;18.92;11.40;;;;;;;;;;6249278;22;20075;-81
2023/08/04 04:57:25;;;;;;;20.88;11.45;;;;;;;;;;6276434;22;20473;-80
2023/08/04 04:59:51;;;;;;;21.90;11.90;;;;;;;;;;6249249;22;20035;-81
2023/08/04 05:02:16;;;;;;;18.98;12.95;;;;;;;;;;6276323;22;20003;-80
2023/08/04 05:04:43;;;;;;;16.83;12.27;;;;;;;;;;6252528;22;20007;-80
2023/08/04 05:07:08;;;;;;;24.02;12.90;;;;;;;;;;6250090;22;20108;-81
2023/08/04 05:09:34;;;;;;;17.48;12.13;;;;;;;;;;6276362;22;20324;-81
2023/08/04 05:11:59;;;;;;;26.30;12.45;;;;;;;;;;6249199;22;20453;-80
2023/08/04 05:14:25;;;;;;;19.42;11.73;;;;;;;;;;6277891;22;20034;-80
2023/08/04 05:16:50;;;;;;;18.65;11.45;;;;;;;;;;6288508;22;20014;-81
2023/08/04 05:19:15;;;;;;;18.92;11.20;;;;;;;;;;6297526;22;20034;-81
2023/08/04 05:21:44;;;;;;;20.77;11.20;;;;;;;;;;6269304;22;20002;-80
2023/08/04 05:24:10;;;;;;;18.27;11.07;;;;;;;;;;6218254;22;20007;-80
2023/08/04 05:26:36;;;;;;;16.10;10.80;;;;;;;;;;6285922;22;20233;-82
2023/08/04 05:29:01;;;;;;;20.05;11.30;;;;;;;;;;6278128;22;20004;-82
2023/08/04 05:31:26;;;;;;;18.05;10.65;;;;;;;;;;6276783;22;20004;-82
2023/08/04 05:33:52;;;;;;;16.15;10.15;;;;;;;;;;6248489;22;20004;-80
2023/08/04 05:36:17;;;;;;;15.48;10.82;;;;;;;;;;6249059;22;20004;-79
2023/08/04 05:38:44;;;;;;;16.67;10.35;;;;;;;;;;6249032;22;20065;-81
2023/08/04 05:41:09;;;;;;;13.07;10.23;;;;;;;;;;6275792;22;20141;-80
2023/08/04 05:43:35;;;;;;;20.02;10.13;;;;;;;;;;6276006;22;20423;-80
2023/08/04 05:46:04;;;;;;;13.90;10.10;;;;;;;;;;6275952;22;20008;-81
2023/08/04 05:48:30;;;;;;;21.88;12.88;;;;;;;;;;6248427;22;20415;-80
2023/08/04 05:50:56;;;;;;;15.18;10.63;;;;;;;;;;6223651;22;20529;-80
2023/08/04 05:53:22;;;;;;;13.80;9.95;;;;;;;;;;6250499;22;20014;-81
2023/08/04 05:55:47;;;;;;;15.90;10.43;;;;;;;;;;6275038;22;20008;-82
2023/08/04 05:58:12;;;;;;;16.75;11.30;;;;;;;;;;6275656;22;20424;-81
2023/08/04 06:00:38;;;;;;;13.65;10.32;;;;;;;;;;6248763;22;20000;-83
2023/08/04 06:03:04;;;;;;;14.23;10.80;;;;;;;;;;6275778;22;20012;-81
2023/08/04 06:05:30;;;;;;;17.08;10.95;;;;;;;;;;6275774;22;20000;-81
2023/08/04 06:07:56;;;;;;;13.70;10.75;;;;;;;;;;6248555;22;20010;-81
2023/08/04 06:10:21;;;;;;;20.92;11.15;;;;;;;;;;6249123;22;20000;-79
2023/08/04 06:12:47;;;;;;;17.30;11.15;;;;;;;;;;6248346;22;20003;-81
2023/08/04 06:15:13;;;;;;;16.80;11.45;;;;;;;;;;6277620;22;20008;-80
2023/08/04 06:17:39;;;;;;;17.08;11.43;;;;;;;;;;6249183;22;20079;-81
2023/08/04 06:20:05;;;;;;;22.27;12.23;;;;;;;;;;6275526;22;20033;-80
2023/08/04 06:22:30;;;;;;;17.17;12.25;;;;;;;;;;6275124;22;20427;-81
2023/08/04 06:24:55;;;;;;;19.20;12.52;;;;;;;;;;6248136;22;19996;-81
2023/08/04 06:27:21;;;;;;;23.02;13.07;;;;;;;;;;6276559;22;20011;-81
2023/08/04 06:29:46;;;;;;;23.27;12.65;;;;;;;;;;6275637;22;20067;-80
2023/08/04 06:32:12;;;;;;;17.95;13.00;;;;;;;;;;6275583;22;20010;-79
2023/08/04 06:34:38;;;;;;;15.82;13.32;;;;;;;;;;6249342;22;20006;-80
2023/08/04 06:37:03;;;;;;;18.25;12.60;;;;;;;;;;6275897;22;20085;-80
2023/08/04 06:39:29;;;;;;;21.00;14.00;;;;;;;;;;6279942;22;20120;-81
2023/08/04 06:41:54;;;;;;;19.95;12.52;;;;;;;;;;6275115;22;20014;-80
2023/08/04 06:44:20;;;;;;;15.88;12.73;;;;;;;;;;6274877;22;20000;-81
2023/08/04 06:46:45;;;;;;;18.60;12.70;;;;;;;;;;6275211;22;20004;-81
2023/08/04 06:49:11;;;;;;;27.38;16.40;;;;;;;;;;6275057;22;20008;-82
2023/08/04 06:51:36;;;;;;;25.10;14.68;;;;;;;;;;6222776;22;20018;-81
2023/08/04 06:54:01;;;;;;;21.35;15.05;;;;;;;;;;6274866;22;19999;-81
2023/08/04 06:56:27;;;;;;;24.17;14.43;;;;;;;;;;6248157;22;20011;-81
2023/08/04 06:58:52;;;;;;;25.15;14.68;;;;;;;;;;6275064;22;19996;-80
2023/08/04 07:01:18;;;;;;;20.30;15.52;;;;;;;;;;6275727;22;20080;-81
2023/08/04 07:03:49;;;;;;;21.42;13.98;;;;;;;;;;6275633;22;20054;-81
2023/08/04 07:06:15;;;;;;;21.98;14.90;;;;;;;;;;6274802;22;20014;-80
2023/08/04 07:08:41;;;;;;;16.40;14.55;;;;;;;;;;6247846;22;20000;-80
2023/08/04 07:11:16;;;;;;;22.88;15.57;;;;;;;;;;6275468;22;19999;-82
2023/08/04 07:13:41;;;;;;;21.77;15.35;;;;;;;;;;6247959;22;20347;-81
2023/08/04 07:16:07;;;;;;;29.13;16.30;;;;;;;;;;6222754;22;20007;-80
2023/08/04 07:18:32;;;;;;;25.77;16.67;;;;;;;;;;6275414;22;19999;-80
2023/08/04 07:21:11;;;;;;;21.88;15.90;;;;;;;;;;6274819;22;20340;-80
2023/08/04 07:23:36;;;;;;;21.90;15.05;;;;;;;;;;6248712;22;20011;-81
2023/08/04 07:26:05;;;;;;;21.27;15.82;;;;;;;;;;6275859;22;20377;-80
2023/08/04 07:28:31;;;;;;;28.40;16.42;;;;;;;;;;6274693;22;20087;-81
2023/08/04 07:30:58;;;;;;;28.25;17.17;;;;;;;;;;6274994;22;19999;-80
2023/08/04 07:33:25;;;;;;;31.88;16.63;;;;;;;;;;6248155;22;20049;-82
2023/08/04 07:35:54;;;;;;;22.10;14.65;;;;;;;;;;6248053;22;20007;-82
2023/08/04 07:38:20;;;;;;;21.25;15.63;;;;;;;;;;6247663;22;20427;-81
2023/08/04 07:40:46;;;;;;;21.13;15.32;;;;;;;;;;6247716;22;20054;-81
2023/08/04 07:43:12;;;;;;;25.92;15.98;;;;;;;;;;6247867;22;19995;-81
2023/08/04 07:45:37;;;;;;;31.20;15.77;;;;;;;;;;6275044;22;20007;-81
2023/08/04 07:48:03;;;;;;;22.77;15.95;;;;;;;;;;6275357;22;20076;-81
2023/08/04 07:50:29;;;;;;;20.70;15.27;;;;;;;;;;6275655;22;20004;-81
2023/08/04 07:52:54;;;;;;;26.13;15.98;;;;;;;;;;6247903;22;20007;-82
2023/08/04 07:55:19;;;;;;;20.70;16.35;;;;;;;;;;6222220;22;20085;-82
2023/08/04 07:57:45;;;;;;;21.92;15.48;;;;;;;;;;6275265;22;20027;-81
2023/08/04 08:00:11;;;;;;;25.52;15.95;;;;;;;;;;6274635;22;20441;-81
2023/08/04 08:02:36;;;;;;;23.02;15.55;;;;;;;;;;6274610;22;20004;-82
2023/08/04 08:05:02;;;;;;;21.20;15.70;;;;;;;;;;6274814;22;20007;-81
2023/08/04 08:07:28;;;;;;;23.92;15.63;;;;;;;;;;6247845;22;20004;-81
2023/08/04 08:09:53;;;;;;;23.88;16.63;;;;;;;;;;6280474;22;20004;-81
2023/08/04 08:12:18;;;;;;;22.10;16.00;;;;;;;;;;6247954;22;20008;-82
2023/08/04 08:14:44;;;;;;;23.20;16.08;;;;;;;;;;6247517;22;20057;-81
2023/08/04 08:17:09;;;;;;;23.80;16.50;;;;;;;;;;6274808;22;20015;-82
2023/08/04 08:19:35;;;;;;;30.75;16.20;;;;;;;;;;6249243;22;20061;-82
2023/08/04 08:22:00;;;;;;;22.33;16.27;;;;;;;;;;6276745;22;20027;-82
2023/08/04 08:24:26;;;;;;;23.67;16.75;;;;;;;;;;6249867;22;20320;-81
2023/08/04 08:26:51;;;;;;;21.10;16.27;;;;;;;;;;6276439;22;20071;-81
2023/08/04 08:29:16;;;;;;;22.52;15.93;;;;;;;;;;6276792;22;20003;-82
2023/08/04 08:31:42;;;;;;;22.88;16.45;;;;;;;;;;6199475;22;20007;-81
2023/08/04 08:34:08;;;;;;;24.23;16.60;;;;;;;;;;6276569;22;20006;-81
2023/08/04 08:36:33;;;;;;;26.42;16.73;;;;;;;;;;6249022;22;20007;-81
2023/08/04 08:38:59;;;;;;;21.83;16.73;;;;;;;;;;6276428;22;20014;-82
2023/08/04 08:41:24;;;;;;;23.13;16.23;;;;;;;;;;6276542;22;20004;-82
2023/08/04 08:43:49;;;;;;;22.90;16.25;;;;;;;;;;6276525;22;20033;-80
2023/08/04 08:46:15;;;;;;;28.63;16.90;;;;;;;;;;6249295;22;20370;-82
2023/08/04 08:48:44;;;;;;;28.00;17.40;;;;;;;;;;6276833;22;19996;-82
2023/08/04 08:51:13;;;;;;;27.35;17.23;;;;;;;;;;6249098;22;20073;-82
2023/08/04 08:53:38;;;;;;;28.05;17.60;;;;;;;;;;6250243;22;20403;-82
2023/08/04 08:56:04;;;;;;;25.23;16.58;;;;;;;;;;6258038;22;20011;-82
2023/08/04 08:58:30;;;;;;;32.78;18.15;;;;;;;;;;6250342;22;20011;-82
2023/08/04 09:00:55;;;;;;;28.45;17.13;;;;;;;;;;6250240;22;20026;-82
2023/08/04 09:03:21;;;;;;;20.77;16.63;;;;;;;;;;6251582;22;20438;-84
2023/08/04 09:05:46;;;;;;;22.98;17.65;;;;;;;;;;6252155;22;20548;-83
2023/08/04 09:08:12;;;;;;;24.67;16.98;;;;;;;;;;6281509;22;20022;-83
2023/08/04 09:10:38;;;;;;;28.55;17.95;;;;;;;;;;6250994;22;20003;-82
2023/08/04 09:13:07;;;;;;;27.20;17.25;;;;;;;;;;6277788;22;19984;-81
2023/08/04 09:15:49;;;;;;;27.40;17.52;;;;;;;;;;6273409;22;19999;-82
2023/08/04 09:18:24;;;;;;;26.42;18.15;;;;;;;;;;6246252;22;20060;-82
2023/08/04 09:20:56;;;;;;;33.88;17.65;;;;;;;;;;6302381;22;20007;-82
2023/08/04 09:23:21;;;;;;;25.20;18.17;;;;;;;;;;6265389;22;20087;-81
2023/08/04 09:25:53;;;;;;;28.40;17.23;;;;;;;;;;6249609;22;20430;-81
2023/08/04 09:28:19;;;;;;;26.05;17.85;;;;;;;;;;6249253;22;20065;-82
2023/08/04 09:31:02;;;;;;;23.88;17.40;;;;;;;;;;6275932;22;20078;-81
2023/08/04 09:33:28;;;;;;;24.33;17.40;;;;;;;;;;6276105;22;20003;-82
2023/08/04 09:36:07;;;;;;;26.85;17.10;;;;;;;;;;6276014;22;20120;-83
2023/08/04 09:38:33;;;;;;;26.55;16.90;;;;;;;;;;6275988;22;19999;-82
2023/08/04 09:41:05;;;;;;;25.75;16.60;;;;;;;;;;6225390;22;20023;-82
2023/08/04 09:43:31;;;;;;;34.17;16.73;;;;;;;;;;6250301;22;20003;-82
2023/08/04 09:46:05;;;;;;;22.00;16.55;;;;;;;;;;6275936;22;20004;-82
2023/08/04 09:48:30;;;;;;;22.75;15.65;;;;;;;;;;6249066;22;20003;-83
2023/08/04 09:51:10;;;;;;;32.85;16.42;;;;;;;;;;6275749;22;20043;-82
2023/08/04 09:53:42;;;;;;;24.48;15.63;;;;;;;;;;6248732;22;20449;-84
2023/08/04 09:56:08;;;;;;;26.85;15.07;;;;;;;;;;6275580;22;20023;-83
2023/08/04 09:58:34;;;;;;;24.30;14.75;;;;;;;;;;6248833;22;20474;-81
2023/08/04 10:01:01;;;;;;;31.33;15.73;;;;;;;;;;6248342;22;20018;-82
2023/08/04 10:03:26;;;;;;;26.77;15.20;;;;;;;;;;6223263;22;20053;-81
2023/08/04 10:05:52;;;;;;;25.00;15.05;;;;;;;;;;6249556;22;20003;-82
2023/08/04 10:08:18;;;;;;;25.67;15.07;;;;;;;;;;6276795;22;20422;-82
2023/08/04 10:10:43;;;;;;;26.42;15.77;;;;;;;;;;6223311;22;20008;-81
2023/08/04 10:13:09;;;;;;;23.38;15.73;;;;;;;;;;6275435;22;20034;-82
2023/08/04 10:15:34;;;;;;;23.67;14.95;;;;;;;;;;6275752;22;20000;-83
2023/08/04 10:18:00;;;;;;;23.65;15.05;;;;;;;;;;6248075;22;20031;-81
2023/08/04 10:20:27;;;;;;;25.35;15.02;;;;;;;;;;6275420;22;20022;-82
2023/08/04 10:22:52;;;;;;;26.75;15.35;;;;;;;;;;6249514;22;20004;-81
2023/08/04 10:25:18;;;;;;;22.60;14.77;;;;;;;;;;6276201;22;20031;-81
2023/08/04 10:27:48;;;;;;;22.48;14.70;;;;;;;;;;6248583;22;20011;-81
2023/08/04 10:30:13;;;;;;;22.13;14.95;;;;;;;;;;6275592;22;20331;-81
2023/08/04 10:32:39;;;;;;;27.23;15.02;;;;;;;;;;6275284;22;20015;-81
2023/08/04 10:35:06;;;;;;;25.42;14.48;;;;;;;;;;6275312;22;20003;-81
2023/08/04 10:37:44;;;;;;;22.88;14.77;;;;;;;;;;6223385;22;20485;-82
2023/08/04 10:40:10;;;;;;;;;;;;;;;;;;6275597;22;20000;-80
2023/08/04 10:42:55;;;;;;;17.75;14.38;;;;;;;;;;6275128;22;19915;-80
2023/08/04 10:45:21;;;;;;;19.90;14.32;;;;;;;;;;6253031;22;20094;-81
2023/08/04 10:47:47;;;;;;;27.80;15.82;;;;;;;;;;6249324;22;20421;-81
2023/08/04 10:50:13;;;;;;;24.27;15.27;;;;;;;;;;6225258;22;20010;-81
2023/08/04 10:52:39;;;;;;;25.55;14.77;;;;;;;;;;6286663;22;20007;-81
2023/08/04 10:55:07;;;;;;;21.23;14.73;;;;;;;;;;6262034;22;20007;-80
2023/08/04 10:57:34;;;;;;;24.70;14.47;;;;;;;;;;6259131;22;19996;-82
2023/08/04 11:00:05;;;;;;;21.42;15.27;;;;;;;;;;6291182;22;20061;-81
2023/08/04 11:02:30;;;;;;;24.15;15.13;;;;;;;;;;6277915;22;20007;-81
2023/08/04 11:04:56;;;;;;;21.58;15.77;;;;;;;;;;6276598;22;20019;-82
2023/08/04 11:07:22;;;;;;;24.50;15.70;;;;;;;;;;6248628;22;20062;-81
2023/08/04 11:09:48;;;;;;;25.08;15.55;;;;;;;;;;6275068;22;20006;-82
2023/08/04 11:12:14;;;;;;;26.02;15.38;;;;;;;;;;6248451;22;20066;-81
2023/08/04 11:14:39;;;;;;;21.98;15.00;;;;;;;;;;6274583;22;20375;-80
2023/08/04 11:17:25;;;;;;;26.70;16.35;;;;;;;;;;6249068;22;20011;-81
2023/08/04 11:19:50;;;;;;;29.13;15.32;;;;;;;;;;6274649;22;20000;-81
2023/08/04 11:22:16;;;;;;;26.52;15.43;;;;;;;;;;6248591;22;20026;-80
2023/08/04 11:24:42;;;;;;;21.63;15.30;;;;;;;;;;6248136;22;20018;-82
2023/08/04 11:27:10;;;;;;;20.65;15.05;;;;;;;;;;6248614;22;20347;-82
2023/08/04 11:29:35;;;;;;;22.60;15.68;;;;;;;;;;6223360;22;19995;-82
2023/08/04 11:32:07;;;;;;;24.50;15.32;;;;;;;;;;6223068;22;20142;-81
2023/08/04 11:34:34;;;;;;;25.02;15.45;;;;;;;;;;6247826;22;20000;-81
2023/08/04 11:36:59;;;;;;;22.20;15.32;;;;;;;;;;6248838;22;20011;-80
2023/08/04 11:39:27;;;;;;;24.00;14.95;;;;;;;;;;6279833;22;20008;-81
2023/08/04 11:41:52;;;;;;;26.53;15.43;;;;;;;;;;6248473;22;20026;-82
2023/08/04 11:44:18;;;;;;;22.20;15.50;;;;;;;;;;6274360;22;20003;-80
2023/08/04 11:46:43;;;;;;;24.38;15.30;;;;;;;;;;6222497;22;20010;-80
2023/08/04 11:49:09;;;;;;;28.13;16.15;;;;;;;;;;6248247;22;20003;-81
2023/08/04 11:51:34;;;;;;;23.63;15.85;;;;;;;;;;6274821;22;20443;-81
2023/08/04 11:53:59;;;;;;;21.90;15.32;;;;;;;;;;6224208;22;20403;-82
2023/08/04 11:56:25;;;;;;;30.95;16.67;;;;;;;;;;6277029;22;20011;-81
2023/08/04 11:58:54;;;;;;;30.10;15.48;;;;;;;;;;6199577;22;20332;-81
2023/08/04 12:01:25;;;;;;;;;;;;;;;;;;6277505;22;19996;-81
2023/08/04 12:03:51;;;;;;;24.90;14.50;;;;;;;;;;6285902;22;19911;-80
2023/08/04 12:06:17;;;;;;;24.05;15.32;;;;;;;;;;6251896;22;20018;-81
2023/08/04 12:08:50;;;;;;;26.40;15.93;;;;;;;;;;6250106;22;20006;-80
2023/08/04 12:11:17;;;;;;;24.58;15.35;;;;;;;;;;6250347;22;20419;-81
2023/08/04 12:13:42;;;;;;;29.42;15.35;;;;;;;;;;6249174;22;20003;-81
2023/08/04 12:16:08;;;;;;;25.45;15.50;;;;;;;;;;6277223;22;20312;-81
2023/08/04 12:18:33;;;;;;;24.30;14.63;;;;;;;;;;6250245;22;20082;-81
2023/08/04 12:20:59;;;;;;;25.48;15.82;;;;;;;;;;6249646;22;20366;-81
2023/08/04 12:23:24;;;;;;;22.00;14.85;;;;;;;;;;6248956;22;20054;-82
2023/08/04 12:25:50;;;;;;;27.77;15.35;;;;;;;;;;6277710;22;20007;-81
2023/08/04 12:28:16;;;;;;;30.23;15.90;;;;;;;;;;6277898;22;20003;-81
2023/08/04 12:30:41;;;;;;;23.08;14.88;;;;;;;;;;6276744;22;20008;-81
2023/08/04 12:33:07;;;;;;;23.85;15.80;;;;;;;;;;6276668;22;19999;-80
2023/08/04 12:35:32;;;;;;;27.45;16.08;;;;;;;;;;6249760;22;20350;-82
2023/08/04 12:38:03;;;;;;;21.90;15.55;;;;;;;;;;6224054;22;20011;-81
2023/08/04 12:40:29;;;;;;;29.50;16.13;;;;;;;;;;6250389;22;20713;-82
2023/08/04 12:42:54;;;;;;;23.95;15.98;;;;;;;;;;6249138;22;20000;-81
2023/08/04 12:45:20;;;;;;;24.33;15.75;;;;;;;;;;6249598;22;20082;-81
2023/08/04 12:47:45;;;;;;;27.17;16.52;;;;;;;;;;6276556;22;20419;-81
2023/08/04 12:50:11;;;;;;;22.92;16.27;;;;;;;;;;6260679;22;20049;-80
2023/08/04 12:52:36;;;;;;;25.50;16.08;;;;;;;;;;6276022;22;20016;-81
2023/08/04 12:55:02;;;;;;;30.42;17.30;;;;;;;;;;6276438;22;20035;-81
2023/08/04 12:57:27;;;;;;;28.90;16.35;;;;;;;;;;6275737;22;20065;-81
2023/08/04 12:59:53;;;;;;;26.33;16.23;;;;;;;;;;6277110;22;20006;-80
2023/08/04 13:02:18;;;;;;;29.27;15.45;;;;;;;;;;6276583;22;20106;-82
2023/08/04 13:04:44;;;;;;;24.52;16.20;;;;;;;;;;6275982;22;20010;-82
2023/08/04 13:07:09;;;;;;;23.02;15.98;;;;;;;;;;6276204;22;20007;-80
2023/08/04 13:09:34;;;;;;;24.70;16.40;;;;;;;;;;6276198;22;20082;-82
2023/08/04 13:12:00;;;;;;;21.45;15.82;;;;;;;;;;6276182;22;20011;-81
2023/08/04 13:14:25;;;;;;;22.92;16.50;;;;;;;;;;6277840;22;20000;-82
2023/08/04 13:16:51;;;;;;;26.75;16.13;;;;;;;;;;6224516;22;20004;-82
2023/08/04 13:19:16;;;;;;;21.92;15.60;;;;;;;;;;6276393;22;20039;-83
2023/08/04 13:21:42;;;;;;;28.35;16.52;;;;;;;;;;6249363;22;20007;-83
2023/08/04 13:24:08;;;;;;;23.10;16.17;;;;;;;;;;6249328;22;20000;-82
2023/08/04 13:26:34;;;;;;;24.67;15.75;;;;;;;;;;6276367;22;20083;-83
2023/08/04 13:28:59;;;;;;;23.02;15.77;;;;;;;;;;6249612;22;20481;-83
2023/08/04 13:31:25;;;;;;;23.73;15.77;;;;;;;;;;6223794;22;20004;-81
2023/08/04 13:33:50;;;;;;;25.95;17.08;;;;;;;;;;6276205;22;20007;-81
2023/08/04 13:36:16;;;;;;;30.30;16.80;;;;;;;;;;6280955;22;20029;-81
2023/08/04 13:38:42;;;;;;;24.08;17.42;;;;;;;;;;6276653;22;20453;-81
2023/08/04 13:41:08;;;;;;;25.45;17.10;;;;;;;;;;6275550;22;19996;-81
2023/08/04 13:43:33;;;;;;;25.10;16.05;;;;;;;;;;6275821;22;20010;-81
2023/08/04 13:46:00;;;;;;;22.38;16.40;;;;;;;;;;6276196;22;20003;-81
2023/08/04 13:48:26;;;;;;;24.95;17.33;;;;;;;;;;6275838;22;20004;-80
2023/08/04 13:50:51;;;;;;;25.02;15.88;;;;;;;;;;6276035;22;20078;-80
2023/08/04 13:53:17;;;;;;;24.95;16.40;;;;;;;;;;6275838;22;20435;-80
2023/08/04 13:55:42;;;;;;;22.92;17.15;;;;;;;;;;6275075;22;20035;-80
2023/08/04 13:58:08;;;;;;;32.60;16.73;;;;;;;;;;6275594;22;20004;-81
2023/08/04 14:00:33;;;;;;;22.58;16.15;;;;;;;;;;6279412;22;20000;-82
2023/08/04 14:02:59;;;;;;;26.25;17.27;;;;;;;;;;6276194;22;20078;-82
2023/08/04 14:05:25;;;;;;;23.58;16.33;;;;;;;;;;6248871;22;20320;-81
2023/08/04 14:07:51;;;;;;;22.95;16.77;;;;;;;;;;6276051;22;20374;-81
2023/08/04 14:10:16;;;;;;;26.48;16.73;;;;;;;;;;6248506;22;19999;-82
2023/08/04 14:12:42;;;;;;;26.55;16.27;;;;;;;;;;6198624;22;20007;-81